Alpharetta, Georgia
Current Conditions -  °F | °C
As of 9:53 PM on Monday 22 Dec 2014 (Local Time) from KPDK Reporting Station
Light Rain Light Rain  
Wind Chill: 39°   Ceiling: 500
Heat Index: 42°   Visibility: 10mi
Dew Point: 41°   Wind: 5mph
Humidity: 96%   Direction: 70°ENE
Pressure: 29.94"   Gusts: NA
Location:  34.08°N, 84.29°W
Report Text: KPDK 230253Z 07004KT 10SM -RA OVC005 06/05 A2994 RMK AO2 RAB0159 SLP148 P0004 60016 T00560050 53002
Loading
Personal Weather Stations






























Interactive Weather Map New forecast layout! Learn more

10-Day Weather Forecast

Advertisements
Track Severe Weather on mobile